Time;durP1;ratioP1;P1;durP2;ratioP2;P2;SDS_P1;SDS_P2;PMS_P1;PMS_P2;Temp;Humidity;BMP_temperature;BMP_pressure;BME280_temperature;BME280_humidity;BME280_pressure;Samples;Min_cycle;Max_cycle;Signal;HPM_P1;HPM_P2
2023/06/04 08:56:41;;;;;;;7.85;6.10;;;;;;;18.23;37.92;101982.47;5065663;28;20400;-72
2023/06/04 08:59:07;;;;;;;2.90;2.60;;;;;;;18.39;37.56;101978.06;5050148;28;20472;-75
2023/06/04 09:01:36;;;;;;;4.90;2.30;;;;;;;18.51;38.34;101988.94;5047344;28;20079;-73
2023/06/04 09:04:05;;;;;;;4.38;2.03;;;;;;;18.63;38.58;101990.75;5049752;28;20029;-70
2023/06/04 09:06:32;;;;;;;4.07;2.00;;;;;;;18.66;37.10;101992.97;5049522;28;20033;-72
2023/06/04 09:08:58;;;;;;;3.70;2.40;;;;;;;18.75;35.97;101995.06;5048668;28;20097;-74
2023/06/04 09:11:27;;;;;;;3.17;2.28;;;;;;;18.76;35.83;101993.13;5046953;28;20028;-73
2023/06/04 09:13:58;;;;;;;9.43;3.10;;;;;;;18.82;36.42;101997.59;5046963;28;20502;-73
2023/06/04 09:16:23;;;;;;;12.77;8.45;;;;;;;18.95;36.83;101993.72;5033954;28;20442;-73
2023/06/04 09:18:49;;;;;;;8.43;3.80;;;;;;;19.03;35.41;101989.69;5048298;28;20067;-74
2023/06/04 09:21:15;;;;;;;3.70;2.42;;;;;;;19.08;35.35;101995.25;5049558;28;20491;-72
2023/06/04 09:23:45;;;;;;;7.70;1.77;;;;;;;19.24;33.75;101997.09;5049232;28;20029;-71
2023/06/04 09:26:10;;;;;;;2.92;1.85;;;;;;;19.25;33.49;101996.03;5049383;28;20064;-71
2023/06/04 09:28:43;;;;;;;2.72;1.80;;;;;;;19.26;33.98;101988.59;5048892;28;20060;-70
2023/06/04 09:31:10;;;;;;;1.90;1.67;;;;;;;19.33;33.36;101993.91;5041294;28;20025;-73
2023/06/04 09:33:49;;;;;;;2.75;1.80;;;;;;;19.47;34.21;101986.94;5046609;28;20044;-74
2023/06/04 09:36:15;;;;;;;6.13;1.60;;;;;;;19.56;31.92;101992.81;5049166;28;20032;-71
2023/06/04 09:38:41;;;;;;;2.50;1.77;;;;;;;19.70;33.46;101991.31;5048957;28;20112;-71
2023/06/04 09:41:13;;;;;;;3.33;1.77;;;;;;;19.60;33.20;101983.78;5049134;28;20120;-73
2023/06/04 09:43:39;;;;;;;4.47;2.00;;;;;;;19.76;33.04;101992.19;5048848;28;20056;-73
2023/06/04 09:46:12;;;;;;;8.07;1.45;;;;;;;19.75;32.10;101985.88;5048134;28;20025;-72
2023/06/04 09:48:39;;;;;;;4.22;1.65;;;;;;;19.81;32.72;101984.03;5049073;28;20476;-72
2023/06/04 09:51:11;;;;;;;3.95;1.45;;;;;;;19.78;32.83;101985.38;5048895;28;20040;-70
2023/06/04 09:53:37;;;;;;;4.07;1.90;;;;;;;19.83;32.61;101988.16;5048340;28;20097;-72
2023/06/04 09:56:04;;;;;;;6.10;1.52;;;;;;;19.99;33.35;101980.91;5048851;28;20049;-72
2023/06/04 09:58:30;;;;;;;3.15;1.98;;;;;;;20.07;33.06;101989.78;5048465;28;20032;-73
2023/06/04 10:00:59;;;;;;;3.80;1.75;;;;;;;20.08;32.69;101980.41;5044153;28;20384;-73
2023/06/04 10:03:26;;;;;;;2.88;1.52;;;;;;;20.16;32.66;101979.94;5044832;28;20369;-74
2023/06/04 10:05:57;;;;;;;2.22;1.40;;;;;;;20.14;32.84;101976.63;5047774;28;20556;-70
2023/06/04 10:08:23;;;;;;;3.37;1.17;;;;;;;20.23;32.79;101979.72;5031117;28;20500;-74
2023/06/04 10:10:55;;;;;;;1.70;1.20;;;;;;;20.25;32.50;101988.53;5015243;28;20316;-72
2023/06/04 10:13:23;;;;;;;2.78;1.55;;;;;;;20.38;32.12;101981.75;5029415;28;20025;-74
2023/06/04 10:15:50;;;;;;;3.85;1.60;;;;;;;20.42;32.70;101980.16;5034265;28;20112;-69
2023/06/04 10:18:16;;;;;;;2.83;1.23;;;;;;;20.49;32.72;101984.31;5033633;28;20068;-73
2023/06/04 10:20:42;;;;;;;3.08;1.38;;;;;;;20.47;32.22;101978.28;5034968;28;20120;-71
2023/06/04 10:23:08;;;;;;;2.33;1.30;;;;;;;20.53;31.55;101968.09;5028336;28;20034;-73
2023/06/04 10:25:37;;;;;;;5.05;1.40;;;;;;;20.66;32.29;101973.19;5034598;28;20044;-77
2023/06/04 10:28:03;;;;;;;2.67;1.42;;;;;;;20.71;32.02;101977.88;5034082;28;20117;-72
2023/06/04 10:30:32;;;;;;;4.45;1.30;;;;;;;20.68;31.90;101982.00;5030786;28;20034;-71
2023/06/04 10:32:58;;;;;;;3.35;1.20;;;;;;;20.69;30.49;101975.41;5033077;28;20025;-71
2023/06/04 10:35:34;;;;;;;5.28;1.20;;;;;;;20.78;30.90;101974.91;5034564;28;20033;-76
2023/06/04 10:38:08;;;;;;;3.22;1.23;;;;;;;20.99;31.46;101971.16;5026008;28;20038;-75
2023/06/04 10:40:34;;;;;;;5.07;1.85;;;;;;;21.13;32.33;101970.66;5016171;28;20117;-75
2023/06/04 10:43:08;;;;;;;6.40;2.80;;;;;;;21.10;30.84;101971.22;5024375;28;20108;-76
2023/06/04 10:45:34;;;;;;;5.75;1.40;;;;;;;21.19;30.49;101969.59;5030013;28;20051;-78
2023/06/04 10:48:00;;;;;;;2.20;1.30;;;;;;;21.29;30.01;101977.88;5031491;28;20041;-72
2023/06/04 10:50:26;;;;;;;1.85;1.20;;;;;;;21.41;31.07;101966.63;5031148;28;20044;-73
2023/06/04 10:52:52;;;;;;;3.70;1.10;;;;;;;21.49;30.39;101974.34;5034308;28;20030;-73
2023/06/04 10:55:18;;;;;;;3.95;1.20;;;;;;;21.60;30.06;101978.00;5032781;28;20053;-72
2023/06/04 10:58:00;;;;;;;6.65;1.38;;;;;;;21.69;31.45;101981.88;5034589;28;20079;-75
2023/06/04 11:00:43;;;;;;;3.85;1.73;;;;;;;21.72;31.01;101978.56;5033103;28;20484;-77
2023/06/04 11:03:12;;;;;;;3.85;1.40;;;;;;;21.69;30.22;101981.03;5016704;28;20045;-78
2023/06/04 11:05:43;;;;;;;4.85;1.40;;;;;;;21.70;30.57;101969.75;5014314;28;20117;-78
2023/06/04 11:08:11;;;;;;;3.75;1.30;;;;;;;21.85;32.11;101968.13;5013272;28;20025;-74
2023/06/04 11:10:41;;;;;;;1.70;1.30;;;;;;;21.88;30.67;101975.84;5014270;28;20083;-78
2023/06/04 11:13:07;;;;;;;2.75;1.40;;;;;;;21.95;30.88;101970.88;5014676;28;20041;-75
2023/06/04 11:15:43;;;;;;;1.58;1.17;;;;;;;22.06;30.39;101971.72;5014101;28;20034;-78
2023/06/04 11:18:14;;;;;;;2.78;1.40;;;;;;;22.13;28.91;101964.84;5028861;28;20381;-74
2023/06/04 11:20:39;;;;;;;;;;;;;;;22.19;31.16;101962.06;5032958;28;20049;-73
2023/06/04 11:23:05;;;;;;;3.47;1.10;;;;;;;22.09;29.01;101954.63;5032915;28;20367;-78
2023/06/04 11:25:32;;;;;;;5.20;1.30;;;;;;;22.26;31.11;101962.63;5027981;28;20058;-77
2023/06/04 11:27:58;;;;;;;4.00;1.38;;;;;;;22.26;30.27;101968.13;5028188;28;20491;-76
2023/06/04 11:30:24;;;;;;;3.88;1.30;;;;;;;22.41;30.76;101959.03;5033812;28;20041;-72
2023/06/04 11:32:50;;;;;;;5.28;1.40;;;;;;;22.29;29.85;101959.31;5032935;28;20439;-75
2023/06/04 11:35:16;;;;;;;1.80;1.20;;;;;;;22.48;29.85;101959.59;5030606;28;20037;-75
2023/06/04 11:37:41;;;;;;;6.15;2.15;;;;;;;22.51;29.44;101961.78;5032298;28;20044;-75
2023/06/04 11:40:17;;;;;;;2.60;1.10;;;;;;;22.60;29.34;101962.88;5033385;28;20457;-75
2023/06/04 11:42:44;;;;;;;1.83;1.02;;;;;;;22.64;28.02;101969.47;5033523;28;20061;-75
2023/06/04 11:45:12;;;;;;;1.17;0.85;;;;;;;22.60;28.64;101960.09;5032498;28;20498;-71
2023/06/04 11:47:37;;;;;;;1.05;1.00;;;;;;;22.59;28.19;101958.44;5032129;28;20026;-78
2023/06/04 11:50:03;;;;;;;1.85;1.10;;;;;;;22.65;28.72;101951.00;5032621;28;20037;-76
2023/06/04 11:52:28;;;;;;;4.55;1.40;;;;;;;22.76;28.75;101947.06;5032370;28;20025;-71
2023/06/04 11:54:54;;;;;;;2.08;1.35;;;;;;;22.81;27.98;101954.50;5020757;28;20045;-71
2023/06/04 11:57:20;;;;;;;3.00;1.58;;;;;;;22.81;27.04;101943.47;5033186;28;20025;-74
2023/06/04 11:59:45;;;;;;;2.80;1.30;;;;;;;22.93;27.50;101948.69;5032982;28;20116;-74
2023/06/04 12:02:11;;;;;;;2.05;1.13;;;;;;;22.95;27.91;101938.19;5029759;28;20025;-73
2023/06/04 12:04:36;;;;;;;2.20;1.20;;;;;;;23.03;28.58;101951.41;5031494;28;20101;-73
2023/06/04 12:07:05;;;;;;;2.28;1.25;;;;;;;23.12;29.11;101946.16;5032395;28;20465;-78
2023/06/04 12:09:36;;;;;;;2.13;1.40;;;;;;;23.29;29.29;101946.59;5031595;28;20084;-78
2023/06/04 12:12:03;;;;;;;2.40;1.33;;;;;;;23.48;29.50;101940.44;5032247;28;20064;-72
2023/06/04 12:14:28;;;;;;;3.63;1.20;;;;;;;23.34;28.78;101941.06;5031080;28;20032;-74
2023/06/04 12:16:57;;;;;;;2.03;1.30;;;;;;;23.27;29.36;101942.50;5032934;28;20372;-77
2023/06/04 12:19:23;;;;;;;2.85;1.65;;;;;;;23.24;28.76;101945.81;5026200;28;20385;-74
2023/06/04 12:22:00;;;;;;;9.98;1.50;;;;;;;23.30;29.33;101934.44;5030794;28;20029;-73
2023/06/04 12:24:26;;;;;;;4.60;1.40;;;;;;;23.33;28.95;101942.16;5031595;28;20045;-78
2023/06/04 12:27:08;;;;;;;6.13;1.50;;;;;;;23.50;28.61;101941.78;5032941;28;20041;-77
2023/06/04 12:29:34;;;;;;;4.07;1.80;;;;;;;23.54;28.25;101934.56;5031258;28;20397;-77
2023/06/04 12:32:13;;;;;;;1.60;1.38;;;;;;;23.53;28.72;101927.41;5032527;28;20037;-78
2023/06/04 12:34:40;;;;;;;2.13;1.10;;;;;;;23.64;28.71;101932.84;5032684;28;20041;-76
2023/06/04 12:37:07;;;;;;;2.35;1.20;;;;;;;23.67;28.69;101937.81;5031912;28;20037;-76
2023/06/04 12:39:33;;;;;;;3.58;1.50;;;;;;;23.73;28.73;101933.06;5031297;28;20522;-76
2023/06/04 12:41:58;;;;;;;2.67;1.50;;;;;;;23.78;28.63;101931.09;5029940;28;20029;-76
2023/06/04 12:44:24;;;;;;;3.90;1.50;;;;;;;23.77;28.16;101937.72;5023969;28;20034;-75
2023/06/04 12:46:50;;;;;;;3.42;1.45;;;;;;;23.82;29.53;101929.38;5015688;28;20017;-72
2023/06/04 12:49:15;;;;;;;3.58;1.27;;;;;;;23.86;29.09;101924.97;5029650;28;20087;-75
2023/06/04 12:51:40;;;;;;;3.08;1.40;;;;;;;24.05;29.14;101927.84;5027451;28;20108;-76
2023/06/04 12:54:06;;;;;;;3.88;1.20;;;;;;;24.21;28.36;101920.22;5032270;28;20421;-76
2023/06/04 12:56:31;;;;;;;4.85;1.75;;;;;;;24.22;27.84;101921.88;5032619;28;20144;-76
2023/06/04 12:58:56;;;;;;;2.55;1.40;;;;;;;24.34;28.70;101924.25;5030638;28;20060;-74
2023/06/04 13:01:22;;;;;;;3.33;1.65;;;;;;;24.43;28.77;101916.16;5021096;28;20031;-71
2023/06/04 13:03:47;;;;;;;2.20;1.30;;;;;;;24.62;28.36;101929.25;5026381;28;20041;-72
2023/06/04 13:06:12;;;;;;;4.78;1.70;;;;;;;24.59;27.83;101917.66;5032403;28;20061;-73
2023/06/04 13:08:38;;;;;;;6.32;1.60;;;;;;;24.66;28.13;101919.25;5022097;28;20037;-73
2023/06/04 13:11:04;;;;;;;3.67;1.80;;;;;;;24.62;27.27;101932.84;5015296;28;20064;-73
2023/06/04 13:13:29;;;;;;;3.72;1.48;;;;;;;24.74;28.16;101918.59;5030815;28;20030;-73
2023/06/04 13:15:55;;;;;;;2.28;1.40;;;;;;;24.68;27.67;101922.53;5032102;28;20034;-72
2023/06/04 13:18:20;;;;;;;3.88;1.58;;;;;;;24.81;28.51;101916.28;5032340;28;20032;-73
2023/06/04 13:20:46;;;;;;;2.97;1.50;;;;;;;24.73;27.52;101920.53;5032063;28;20099;-73
2023/06/04 13:23:12;;;;;;;3.63;1.67;;;;;;;24.88;27.94;101919.53;5031377;28;20381;-72
2023/06/04 13:25:38;;;;;;;3.50;1.40;;;;;;;24.79;27.38;101929.63;5029765;28;20362;-73
2023/06/04 13:28:04;;;;;;;4.20;1.48;;;;;;;24.49;27.29;101919.66;5029927;28;20056;-74
2023/06/04 13:30:29;;;;;;;2.03;1.40;;;;;;;24.57;28.08;101917.09;5031400;28;20036;-74
2023/06/04 13:32:55;;;;;;;1.70;1.60;;;;;;;24.76;28.42;101919.94;5026648;28;20042;-72
2023/06/04 13:35:20;;;;;;;3.65;1.70;;;;;;;24.84;27.60;101926.78;5012233;28;20496;-72
2023/06/04 13:37:46;;;;;;;3.38;1.60;;;;;;;24.94;28.01;101914.72;5012238;28;20450;-74
2023/06/04 13:40:11;;;;;;;4.68;1.65;;;;;;;24.98;27.23;101923.28;5027125;28;20044;-71
2023/06/04 13:42:37;;;;;;;2.30;1.60;;;;;;;24.91;27.03;101913.41;5034396;28;20103;-74
2023/06/04 13:45:02;;;;;;;3.50;1.55;;;;;;;24.98;27.46;101912.22;5033489;28;20036;-70
2023/06/04 13:47:28;;;;;;;5.05;1.52;;;;;;;25.05;27.45;101913.47;5035824;28;20026;-71
2023/06/04 13:49:53;;;;;;;8.40;1.83;;;;;;;25.10;27.31;101904.28;5035502;28;20464;-74
2023/06/04 13:52:18;;;;;;;4.22;1.65;;;;;;;25.17;27.04;101907.50;5035670;28;20275;-71
2023/06/04 13:54:44;;;;;;;5.15;1.52;;;;;;;25.25;27.64;101911.56;5034515;28;20096;-71
2023/06/04 13:57:12;;;;;;;2.33;1.50;;;;;;;25.28;27.07;101905.41;5035652;28;20026;-74
2023/06/04 13:59:38;;;;;;;3.63;1.80;;;;;;;25.39;27.42;101900.56;5034403;28;20036;-72
2023/06/04 14:02:03;;;;;;;4.55;1.70;;;;;;;25.32;26.85;101902.88;5032181;28;20061;-72
2023/06/04 14:04:29;;;;;;;2.75;2.00;;;;;;;25.53;27.81;101893.16;5034464;28;20444;-74
2023/06/04 14:06:55;;;;;;;2.95;1.70;;;;;;;25.40;26.90;101902.22;5033967;28;20087;-73
2023/06/04 14:09:20;;;;;;;3.05;1.88;;;;;;;25.50;27.15;101902.06;5035148;28;20477;-74
2023/06/04 14:11:50;;;;;;;5.20;1.70;;;;;;;25.49;26.67;101897.66;5035294;28;20064;-71
2023/06/04 14:14:17;;;;;;;2.70;1.70;;;;;;;25.50;26.78;101896.53;5033772;28;20025;-73
2023/06/04 14:16:45;;;;;;;4.13;2.40;;;;;;;25.39;26.45;101904.16;5033305;28;20033;-73
2023/06/04 14:19:11;;;;;;;5.78;2.05;;;;;;;25.47;27.10;101886.06;5034205;28;20365;-71
2023/06/04 14:21:37;;;;;;;2.75;1.50;;;;;;;25.53;27.53;101893.16;5034954;28;20464;-72
2023/06/04 14:24:02;;;;;;;2.60;1.58;;;;;;;25.53;26.79;101886.78;5033716;28;20133;-71
2023/06/04 14:26:28;;;;;;;4.18;1.50;;;;;;;25.67;27.23;101884.06;5035080;28;20457;-74
2023/06/04 14:28:53;;;;;;;2.15;1.58;;;;;;;25.78;27.16;101880.00;5029613;28;20052;-72
2023/06/04 14:31:19;;;;;;;2.95;1.63;;;;;;;25.98;26.81;101879.66;5031516;28;20120;-71
2023/06/04 14:33:44;;;;;;;3.40;2.20;;;;;;;25.93;26.09;101878.91;5034747;28;20029;-71
2023/06/04 14:36:10;;;;;;;2.15;1.40;;;;;;;25.97;26.05;101878.00;5034870;28;20029;-78
2023/06/04 14:38:35;;;;;;;2.70;1.60;;;;;;;25.96;25.97;101886.59;5034044;28;20033;-72
2023/06/04 14:41:00;;;;;;;3.22;1.77;;;;;;;26.06;26.47;101886.47;5034648;28;20435;-76
2023/06/04 14:43:26;;;;;;;3.40;2.10;;;;;;;26.12;26.22;101876.09;5032955;28;20033;-76
2023/06/04 14:45:51;;;;;;;5.00;1.88;;;;;;;26.00;25.72;101877.41;5034450;28;20036;-73
2023/06/04 14:48:16;;;;;;;5.93;3.10;;;;;;;26.13;26.39;101878.56;5034709;28;20025;-74
2023/06/04 14:50:42;;;;;;;1.70;1.60;;;;;;;26.22;25.87;101863.97;5033483;28;20037;-75
2023/06/04 14:53:08;;;;;;;6.30;2.50;;;;;;;26.22;26.31;101875.88;5019350;28;20026;-73
2023/06/04 14:55:34;;;;;;;4.22;1.70;;;;;;;26.20;25.63;101883.69;5033099;28;20505;-75
2023/06/04 14:57:59;;;;;;;7.97;2.08;;;;;;;26.03;25.47;101872.38;5032057;28;20112;-75
2023/06/04 15:00:25;;;;;;;4.03;2.95;;;;;;;26.10;26.38;101867.25;5032596;28;20416;-73
2023/06/04 15:02:50;;;;;;;5.60;2.22;;;;;;;26.18;26.24;101861.00;5032119;28;20040;-75
2023/06/04 15:05:15;;;;;;;3.83;2.05;;;;;;;26.55;26.08;101866.66;5032415;28;20033;-75
2023/06/04 15:07:41;;;;;;;4.13;1.90;;;;;;;26.49;26.09;101871.47;5033938;28;20025;-72
2023/06/04 15:10:06;;;;;;;2.53;1.63;;;;;;;26.46;25.30;101867.38;5034156;28;20029;-76
2023/06/04 15:12:33;;;;;;;4.82;2.80;;;;;;;26.52;26.32;101857.00;5031512;28;20038;-77
2023/06/04 15:14:58;;;;;;;3.03;2.10;;;;;;;26.63;25.16;101855.66;5029402;28;20040;-77
2023/06/04 15:17:23;;;;;;;4.80;1.58;;;;;;;26.68;25.26;101860.31;5032832;28;20029;-76
2023/06/04 15:19:49;;;;;;;3.65;2.10;;;;;;;26.76;25.45;101854.00;5033891;28;20060;-75
2023/06/04 15:22:14;;;;;;;2.50;1.75;;;;;;;26.80;25.58;101854.19;5034010;28;20057;-72
2023/06/04 15:24:39;;;;;;;2.53;1.40;;;;;;;26.87;25.19;101847.13;5033921;28;20082;-74
2023/06/04 15:27:05;;;;;;;5.77;2.27;;;;;;;26.90;25.70;101853.97;5025246;28;20091;-73
2023/06/04 15:29:30;;;;;;;2.83;2.13;;;;;;;26.94;25.40;101846.66;5030045;28;20287;-73
2023/06/04 15:31:56;;;;;;;6.65;2.00;;;;;;;26.85;25.41;101849.34;5033641;28;20442;-73
2023/06/04 15:34:21;;;;;;;3.33;2.05;;;;;;;26.62;25.08;101840.13;5033862;28;20030;-73
2023/06/04 15:36:46;;;;;;;3.33;2.10;;;;;;;26.56;25.27;101844.16;5022256;28;20044;-71
2023/06/04 15:39:12;;;;;;;3.83;1.92;;;;;;;26.54;25.79;101838.06;5013728;28;20030;-72
2023/06/04 15:41:37;;;;;;;3.40;2.30;;;;;;;26.61;26.05;101843.22;5021876;28;20029;-73
2023/06/04 15:44:02;;;;;;;3.80;1.80;;;;;;;26.91;26.03;101841.75;5033098;28;20033;-72
2023/06/04 15:46:28;;;;;;;3.50;1.95;;;;;;;27.37;25.33;101840.69;5032249;28;20141;-72
2023/06/04 15:48:53;;;;;;;2.53;2.27;;;;;;;28.03;24.74;101842.09;5033303;28;20029;-72
2023/06/04 15:51:18;;;;;;;5.35;2.10;;;;;;;28.61;23.90;101832.66;5032825;28;20278;-72
2023/06/04 15:53:44;;;;;;;6.75;2.38;;;;;;;29.05;23.59;101843.84;5031947;28;20120;-72
2023/06/04 15:56:11;;;;;;;6.95;2.17;;;;;;;29.22;23.39;101842.25;5032588;28;20053;-73
2023/06/04 15:58:36;;;;;;;4.57;2.08;;;;;;;28.93;22.63;101846.47;5032309;28;20500;-74
2023/06/04 16:01:02;;;;;;;2.70;1.90;;;;;;;28.52;23.39;101844.88;5031051;28;20115;-73
2023/06/04 16:03:27;;;;;;;7.10;2.50;;;;;;;27.94;24.12;101842.00;5033316;28;20026;-73
2023/06/04 16:05:52;;;;;;;4.82;2.55;;;;;;;27.43;24.88;101846.94;5032747;28;20034;-72
